DEHPW EBAW-EBAW
Flight info
| Callsign | DEHPW |
|---|---|
| Flight time | 0h 38m |
| Altitude | 1000 |
| Route | EBAW EBAW |
| Aircraft | DA20/L-V/N |
Departure
| Time | 2026-04-25 09:41 |
|---|---|
| Airport | Antwerp International Airport (Deurne) (EBAW) |
Arrival
| Time | 2026-04-25 10:19 |
|---|---|
| Airport | Antwerp International Airport (Deurne) (EBAW) |
| Time | Latitude | Longitude | Altitude | Speed | Heading |
|---|---|---|---|---|---|
| 2026-04-25 09:08 | 51.18724 | 4.45471 | 35 ft | 0 kts | 218° |
| 2026-04-25 09:10 | 51.18723 | 4.45469 | 35 ft | 2 kts | 237° |
| 2026-04-25 09:10 | 51.18722 | 4.45466 | 35 ft | 0 kts | 224° |
| 2026-04-25 09:11 | 51.18714 | 4.45460 | 35 ft | 0 kts | 245° |
| 2026-04-25 09:12 | 51.18718 | 4.45432 | 35 ft | 4 kts | 308° |
| 2026-04-25 09:12 | 51.18735 | 4.45414 | 35 ft | 6 kts | 330° |
| 2026-04-25 09:13 | 51.18780 | 4.45374 | 35 ft | 9 kts | 326° |
| 2026-04-25 09:13 | 51.18817 | 4.45402 | 35 ft | 11 kts | 83° |
| 2026-04-25 09:13 | 51.18861 | 4.45451 | 35 ft | 11 kts | 334° |
| 2026-04-25 09:13 | 51.18937 | 4.45387 | 35 ft | 13 kts | 3° |
| 2026-04-25 09:14 | 51.18997 | 4.45487 | 35 ft | 10 kts | 53° |
| 2026-04-25 09:14 | 51.19048 | 4.45493 | 35 ft | 6 kts | 323° |
| 2026-04-25 09:14 | 51.19083 | 4.45451 | 35 ft | 0 kts | 321° |
| 2026-04-25 09:16 | 51.19088 | 4.45444 | 35 ft | 4 kts | 318° |
| 2026-04-25 09:17 | 51.19191 | 4.45401 | 35 ft | 10 kts | 53° |
| 2026-04-25 09:17 | 51.19161 | 4.45591 | 35 ft | 38 kts | 110° |
| 2026-04-25 09:17 | 51.19105 | 4.45890 | 34 ft | 0 kts | 231° |
| 2026-04-25 09:18 | 51.18724 | 4.45471 | 35 ft | 0 kts | 218° |
| 2026-04-25 09:34 | 51.18721 | 4.45468 | 35 ft | 2 kts | 216° |
| 2026-04-25 09:35 | 51.18722 | 4.45425 | 35 ft | 8 kts | 320° |
| 2026-04-25 09:35 | 51.18774 | 4.45486 | 35 ft | 10 kts | 11° |
| 2026-04-25 09:35 | 51.18870 | 4.45446 | 35 ft | 18 kts | 336° |
| 2026-04-25 09:35 | 51.18954 | 4.45404 | 35 ft | 6 kts | 45° |
| 2026-04-25 09:36 | 51.19001 | 4.45499 | 35 ft | 12 kts | 47° |
| 2026-04-25 09:36 | 51.19082 | 4.45452 | 35 ft | 8 kts | 322° |
| 2026-04-25 09:36 | 51.19084 | 4.45449 | 35 ft | 0 kts | 321° |
| 2026-04-25 09:38 | 51.19096 | 4.45433 | 35 ft | 7 kts | 317° |
| 2026-04-25 09:39 | 51.19155 | 4.45376 | 35 ft | 12 kts | 4° |
| 2026-04-25 09:39 | 51.19191 | 4.45455 | 34 ft | 1 kts | 111° |
| 2026-04-25 09:39 | 51.19154 | 4.45622 | 35 ft | 42 kts | 109° |
| 2026-04-25 09:40 | 51.18930 | 4.46713 | 233 ft | 55 kts | 105° |
| 2026-04-25 09:40 | 51.18804 | 4.47310 | 314 ft | 62 kts | 107° |
| 2026-04-25 09:40 | 51.18671 | 4.47946 | 446 ft | 57 kts | 96° |
| 2026-04-25 09:40 | 51.18815 | 4.48580 | 556 ft | 67 kts | 50° |
| 2026-04-25 09:41 | 51.19271 | 4.48937 | 622 ft | 82 kts | 12° |
| 2026-04-25 09:41 | 51.19836 | 4.49009 | 794 ft | 81 kts | 349° |
| 2026-04-25 09:41 | 51.20379 | 4.48737 | 943 ft | 82 kts | 305° |
| 2026-04-25 09:41 | 51.20443 | 4.47828 | 1001 ft | 90 kts | 268° |
| 2026-04-25 09:42 | 51.20410 | 4.46743 | 986 ft | 100 kts | 270° |
| 2026-04-25 09:42 | 51.20402 | 4.45605 | 1053 ft | 101 kts | 271° |
| 2026-04-25 09:42 | 51.20335 | 4.44498 | 1128 ft | 100 kts | 258° |
| 2026-04-25 09:42 | 51.19859 | 4.43618 | 834 ft | 114 kts | 194° |
| 2026-04-25 09:43 | 51.19350 | 4.44180 | 459 ft | 99 kts | 98° |
| 2026-04-25 09:43 | 51.19227 | 4.45249 | 125 ft | 92 kts | 104° |
| 2026-04-25 09:43 | 51.19045 | 4.46103 | 41 ft | 65 kts | 108° |
| 2026-04-25 09:43 | 51.18917 | 4.46688 | 41 ft | 59 kts | 107° |
| 2026-04-25 09:44 | 51.18778 | 4.47285 | 166 ft | 56 kts | 107° |
| 2026-04-25 09:44 | 51.18653 | 4.47864 | 288 ft | 56 kts | 105° |
| 2026-04-25 09:44 | 51.18556 | 4.48433 | 432 ft | 52 kts | 96° |
| 2026-04-25 09:44 | 51.18518 | 4.49038 | 532 ft | 64 kts | 90° |
| 2026-04-25 09:45 | 51.18371 | 4.49716 | 743 ft | 70 kts | 127° |
| 2026-04-25 09:45 | 51.17967 | 4.50140 | 980 ft | 73 kts | 156° |
| 2026-04-25 09:45 | 51.17470 | 4.50297 | 1061 ft | 68 kts | 208° |
| 2026-04-25 09:45 | 51.17204 | 4.49608 | 1005 ft | 78 kts | 250° |
| 2026-04-25 09:46 | 51.17101 | 4.48723 | 960 ft | 81 kts | 278° |
| 2026-04-25 09:46 | 51.17147 | 4.47756 | 811 ft | 98 kts | 275° |
| 2026-04-25 09:46 | 51.17285 | 4.46799 | 951 ft | 85 kts | 289° |
| 2026-04-25 09:46 | 51.17485 | 4.45910 | 957 ft | 81 kts | 295° |
| 2026-04-25 09:47 | 51.17754 | 4.45174 | 961 ft | 76 kts | 303° |
| 2026-04-25 09:47 | 51.18043 | 4.44491 | 963 ft | 72 kts | 304° |
| 2026-04-25 09:47 | 51.18362 | 4.43874 | 950 ft | 72 kts | 315° |
| 2026-04-25 09:47 | 51.18701 | 4.43256 | 886 ft | 77 kts | 315° |
| 2026-04-25 09:48 | 51.19154 | 4.43238 | 835 ft | 80 kts | 27° |
| 2026-04-25 09:48 | 51.19572 | 4.43812 | 812 ft | 80 kts | 80° |
| 2026-04-25 09:48 | 51.19375 | 4.44656 | 435 ft | 89 kts | 109° |
| 2026-04-25 09:48 | 51.19166 | 4.45571 | 116 ft | 78 kts | 108° |
| 2026-04-25 09:49 | 51.19007 | 4.46258 | 37 ft | 56 kts | 107° |
| 2026-04-25 09:49 | 51.18862 | 4.46906 | 71 ft | 74 kts | 108° |
| 2026-04-25 09:49 | 51.18684 | 4.47650 | 350 ft | 70 kts | 110° |
| 2026-04-25 09:49 | 51.18477 | 4.48403 | 566 ft | 75 kts | 112° |
| 2026-04-25 09:50 | 51.18420 | 4.49184 | 791 ft | 78 kts | 75° |
| 2026-04-25 09:50 | 51.18688 | 4.49959 | 1013 ft | 73 kts | 37° |
| 2026-04-25 09:50 | 51.19096 | 4.50162 | 1107 ft | 61 kts | 2° |
| 2026-04-25 09:50 | 51.19535 | 4.50171 | 1080 ft | 67 kts | 360° |
| 2026-04-25 09:51 | 51.20036 | 4.50141 | 1007 ft | 78 kts | 356° |
| 2026-04-25 09:51 | 51.20623 | 4.50067 | 1026 ft | 83 kts | 353° |
| 2026-04-25 09:51 | 51.21133 | 4.49674 | 1081 ft | 83 kts | 297° |
| 2026-04-25 09:51 | 51.21079 | 4.48689 | 988 ft | 100 kts | 259° |
| 2026-04-25 09:52 | 51.20942 | 4.47587 | 927 ft | 103 kts | 261° |
| 2026-04-25 09:52 | 51.20840 | 4.46456 | 909 ft | 101 kts | 268° |
| 2026-04-25 09:52 | 51.20958 | 4.45374 | 888 ft | 101 kts | 289° |
| 2026-04-25 09:52 | 51.21205 | 4.44309 | 803 ft | 103 kts | 292° |
| 2026-04-25 09:53 | 51.21340 | 4.43269 | 929 ft | 91 kts | 255° |
| 2026-04-25 09:53 | 51.20907 | 4.42908 | 1034 ft | 79 kts | 157° |
| 2026-04-25 09:53 | 51.20706 | 4.43664 | 997 ft | 83 kts | 58° |
| 2026-04-25 09:53 | 51.21147 | 4.43819 | 1105 ft | 67 kts | 293° |
| 2026-04-25 09:54 | 51.20949 | 4.43207 | 1039 ft | 77 kts | 205° |
| 2026-04-25 09:54 | 51.20463 | 4.42972 | 871 ft | 72 kts | 191° |
| 2026-04-25 09:54 | 51.19992 | 4.42957 | 716 ft | 66 kts | 159° |
| 2026-04-25 09:54 | 51.19667 | 4.43464 | 580 ft | 72 kts | 117° |
| 2026-04-25 09:55 | 51.19468 | 4.44185 | 388 ft | 70 kts | 106° |
| 2026-04-25 09:55 | 51.19315 | 4.44906 | 210 ft | 68 kts | 107° |
| 2026-04-25 09:55 | 51.19153 | 4.45614 | 37 ft | 62 kts | 108° |
| 2026-04-25 09:55 | 51.19028 | 4.46181 | 37 ft | 60 kts | 108° |
| 2026-04-25 09:56 | 51.18866 | 4.46899 | 180 ft | 71 kts | 109° |
| 2026-04-25 09:56 | 51.18683 | 4.47620 | 412 ft | 68 kts | 110° |
| 2026-04-25 09:56 | 51.18494 | 4.48368 | 588 ft | 73 kts | 110° |
| 2026-04-25 09:56 | 51.18298 | 4.49040 | 917 ft | 62 kts | 133° |
| 2026-04-25 09:57 | 51.17874 | 4.49328 | 995 ft | 75 kts | 171° |
| 2026-04-25 09:57 | 51.17325 | 4.49304 | 1039 ft | 84 kts | 190° |
| 2026-04-25 09:57 | 51.16708 | 4.49143 | 1014 ft | 92 kts | 188° |
| 2026-04-25 09:57 | 51.16204 | 4.48730 | 1049 ft | 88 kts | 249° |
| 2026-04-25 09:58 | 51.16146 | 4.47791 | 1028 ft | 80 kts | 270° |
| 2026-04-25 09:58 | 51.16140 | 4.46940 | 1047 ft | 76 kts | 279° |
| 2026-04-25 09:58 | 51.16247 | 4.46123 | 1036 ft | 74 kts | 298° |
| 2026-04-25 09:58 | 51.16598 | 4.45531 | 996 ft | 76 kts | 330° |
| 2026-04-25 09:59 | 51.17031 | 4.45107 | 1008 ft | 72 kts | 324° |
| 2026-04-25 09:59 | 51.17449 | 4.44599 | 954 ft | 76 kts | 323° |
| 2026-04-25 09:59 | 51.17878 | 4.44105 | 920 ft | 76 kts | 324° |
| 2026-04-25 09:59 | 51.18228 | 4.43494 | 890 ft | 78 kts | 303° |
| 2026-04-25 10:00 | 51.18598 | 4.42888 | 837 ft | 78 kts | 339° |
| 2026-04-25 10:00 | 51.19073 | 4.43143 | 757 ft | 83 kts | 29° |
| 2026-04-25 10:00 | 51.19495 | 4.43832 | 559 ft | 78 kts | 72° |
| 2026-04-25 10:00 | 51.19371 | 4.44646 | 321 ft | 78 kts | 111° |
| 2026-04-25 10:01 | 51.19202 | 4.45393 | 59 ft | 67 kts | 108° |
| 2026-04-25 10:01 | 51.19069 | 4.46009 | 36 ft | 62 kts | 107° |
| 2026-04-25 10:01 | 51.18895 | 4.46762 | 207 ft | 71 kts | 110° |
| 2026-04-25 10:01 | 51.18731 | 4.47469 | 488 ft | 68 kts | 107° |
| 2026-04-25 10:02 | 51.18574 | 4.48218 | 697 ft | 72 kts | 108° |
| 2026-04-25 10:02 | 51.18441 | 4.48998 | 917 ft | 77 kts | 101° |
| 2026-04-25 10:02 | 51.18549 | 4.49727 | 1135 ft | 68 kts | 28° |
| 2026-04-25 10:02 | 51.19022 | 4.49930 | 1127 ft | 77 kts | 7° |
| 2026-04-25 10:03 | 51.19567 | 4.50036 | 1178 ft | 73 kts | 1° |
| 2026-04-25 10:03 | 51.20058 | 4.50119 | 1233 ft | 68 kts | 6° |
| 2026-04-25 10:03 | 51.20540 | 4.50141 | 1224 ft | 75 kts | 352° |
| 2026-04-25 10:03 | 51.21074 | 4.50093 | 1245 ft | 73 kts | 352° |
| 2026-04-25 10:04 | 51.21378 | 4.49564 | 1233 ft | 83 kts | 267° |
| 2026-04-25 10:04 | 51.21260 | 4.48531 | 995 ft | 103 kts | 262° |
| 2026-04-25 10:04 | 51.21161 | 4.47401 | 950 ft | 101 kts | 264° |
| 2026-04-25 10:04 | 51.21146 | 4.46333 | 991 ft | 89 kts | 288° |
| 2026-04-25 10:05 | 51.21555 | 4.45657 | 950 ft | 89 kts | 346° |
| 2026-04-25 10:05 | 51.22148 | 4.45630 | 992 ft | 79 kts | 25° |
| 2026-04-25 10:05 | 51.22309 | 4.46334 | 989 ft | 77 kts | 115° |
| 2026-04-25 10:05 | 51.21857 | 4.46563 | 980 ft | 74 kts | 210° |
| 2026-04-25 10:06 | 51.21708 | 4.45871 | 941 ft | 70 kts | 294° |
| 2026-04-25 10:06 | 51.22061 | 4.45503 | 978 ft | 62 kts | 1° |
| 2026-04-25 10:06 | 51.22372 | 4.45910 | 966 ft | 64 kts | 91° |
| 2026-04-25 10:06 | 51.21998 | 4.46306 | 895 ft | 74 kts | 188° |
| 2026-04-25 10:07 | 51.21639 | 4.45755 | 833 ft | 74 kts | 245° |
| 2026-04-25 10:07 | 51.21385 | 4.45049 | 785 ft | 78 kts | 228° |
| 2026-04-25 10:07 | 51.21029 | 4.44440 | 797 ft | 69 kts | 219° |
| 2026-04-25 10:07 | 51.20628 | 4.44000 | 766 ft | 73 kts | 211° |
| 2026-04-25 10:08 | 51.20141 | 4.43600 | 672 ft | 81 kts | 190° |
| 2026-04-25 10:08 | 51.19647 | 4.43901 | 567 ft | 79 kts | 129° |
| 2026-04-25 10:08 | 51.19387 | 4.44574 | 328 ft | 68 kts | 108° |
| 2026-04-25 10:08 | 51.19225 | 4.45291 | 101 ft | 68 kts | 105° |
| 2026-04-25 10:09 | 51.19086 | 4.45934 | 36 ft | 59 kts | 110° |
| 2026-04-25 10:09 | 51.18927 | 4.46632 | 175 ft | 69 kts | 110° |
| 2026-04-25 10:09 | 51.18728 | 4.47327 | 396 ft | 67 kts | 110° |
| 2026-04-25 10:09 | 51.18546 | 4.48003 | 611 ft | 64 kts | 112° |
| 2026-04-25 10:10 | 51.18386 | 4.48674 | 825 ft | 69 kts | 117° |
| 2026-04-25 10:10 | 51.17966 | 4.49022 | 995 ft | 81 kts | 177° |
| 2026-04-25 10:10 | 51.17441 | 4.48646 | 1102 ft | 90 kts | 222° |
| 2026-04-25 10:10 | 51.16968 | 4.47946 | 1061 ft | 95 kts | 225° |
| 2026-04-25 10:11 | 51.16633 | 4.47080 | 1067 ft | 91 kts | 269° |
| 2026-04-25 10:11 | 51.16977 | 4.46189 | 956 ft | 106 kts | 314° |
| 2026-04-25 10:11 | 51.17492 | 4.45289 | 912 ft | 112 kts | 308° |
| 2026-04-25 10:11 | 51.17985 | 4.44390 | 906 ft | 100 kts | 315° |
| 2026-04-25 10:12 | 51.18442 | 4.43687 | 898 ft | 87 kts | 318° |
| 2026-04-25 10:12 | 51.18873 | 4.43066 | 885 ft | 81 kts | 324° |
| 2026-04-25 10:12 | 51.19756 | 4.43626 | 715 ft | 75 kts | 81° |
| 2026-04-25 10:13 | 51.19475 | 4.44371 | 396 ft | 88 kts | 114° |
| 2026-04-25 10:13 | 51.19236 | 4.45240 | 114 ft | 82 kts | 107° |
| 2026-04-25 10:13 | 51.19080 | 4.45948 | 36 ft | 54 kts | 107° |
| 2026-04-25 10:13 | 51.18929 | 4.46591 | 135 ft | 67 kts | 112° |
| 2026-04-25 10:14 | 51.18733 | 4.47255 | 345 ft | 67 kts | 114° |
| 2026-04-25 10:14 | 51.18495 | 4.47923 | 549 ft | 68 kts | 111° |
| 2026-04-25 10:14 | 51.18339 | 4.48646 | 738 ft | 70 kts | 105° |
| 2026-04-25 10:14 | 51.18294 | 4.49420 | 957 ft | 71 kts | 69° |
| 2026-04-25 10:15 | 51.18532 | 4.50127 | 1003 ft | 72 kts | 51° |
| 2026-04-25 10:15 | 51.18940 | 4.50543 | 1049 ft | 70 kts | 15° |
| 2026-04-25 10:15 | 51.19406 | 4.50621 | 1084 ft | 68 kts | 0° |
| 2026-04-25 10:15 | 51.19884 | 4.50626 | 1110 ft | 69 kts | 2° |
| 2026-04-25 10:16 | 51.20358 | 4.50587 | 1123 ft | 69 kts | 352° |
| 2026-04-25 10:16 | 51.20754 | 4.50191 | 1118 ft | 75 kts | 294° |
| 2026-04-25 10:16 | 51.20831 | 4.49315 | 1046 ft | 82 kts | 278° |
| 2026-04-25 10:16 | 51.20880 | 4.48411 | 1028 ft | 81 kts | 278° |
| 2026-04-25 10:17 | 51.20943 | 4.47570 | 1052 ft | 76 kts | 277° |
| 2026-04-25 10:17 | 51.21015 | 4.46707 | 980 ft | 78 kts | 285° |
| 2026-04-25 10:17 | 51.21142 | 4.45860 | 940 ft | 77 kts | 287° |
| 2026-04-25 10:17 | 51.21264 | 4.44978 | 876 ft | 78 kts | 276° |
| 2026-04-25 10:18 | 51.21051 | 4.44206 | 834 ft | 84 kts | 221° |
| 2026-04-25 10:18 | 51.20551 | 4.43674 | 726 ft | 92 kts | 202° |
| 2026-04-25 10:18 | 51.19967 | 4.43636 | 679 ft | 76 kts | 168° |
| 2026-04-25 10:18 | 51.19556 | 4.44067 | 440 ft | 73 kts | 121° |
| 2026-04-25 10:19 | 51.19345 | 4.44761 | 222 ft | 66 kts | 105° |
| 2026-04-25 10:19 | 51.19192 | 4.45450 | 45 ft | 64 kts | 109° |
| 2026-04-25 10:19 | 51.19067 | 4.46009 | 36 ft | 44 kts | 112° |
| 2026-04-25 10:19 | 51.18972 | 4.46429 | 39 ft | 38 kts | 111° |
| 2026-04-25 10:20 | 51.18890 | 4.46808 | 36 ft | 33 kts | 114° |
| 2026-04-25 10:20 | 51.18814 | 4.47101 | 34 ft | 20 kts | 138° |
| 2026-04-25 10:20 | 51.18727 | 4.47111 | 35 ft | 11 kts | 167° |
| 2026-04-25 10:20 | 51.18663 | 4.47055 | 35 ft | 13 kts | 233° |
| 2026-04-25 10:21 | 51.18617 | 4.46956 | 35 ft | 12 kts | 234° |
| 2026-04-25 10:21 | 51.18580 | 4.46817 | 35 ft | 15 kts | 255° |
| 2026-04-25 10:21 | 51.18578 | 4.46641 | 35 ft | 17 kts | 276° |
| 2026-04-25 10:21 | 51.18608 | 4.46447 | 35 ft | 19 kts | 284° |
| 2026-04-25 10:22 | 51.18641 | 4.46240 | 35 ft | 20 kts | 286° |
| 2026-04-25 10:22 | 51.18664 | 4.46097 | 35 ft | 20 kts | 283° |
| 2026-04-25 10:22 | 51.18711 | 4.45795 | 35 ft | 21 kts | 286° |
| 2026-04-25 10:22 | 51.18748 | 4.45562 | 35 ft | 22 kts | 283° |
| 2026-04-25 10:23 | 51.18736 | 4.45419 | 35 ft | 12 kts | 206° |
| 2026-04-25 10:23 | 51.18723 | 4.45470 | 35 ft | 5 kts | 36° |
| 2026-04-25 10:23 | 51.18728 | 4.45477 | 35 ft | 0 kts | 37° |